Time;durP1;ratioP1;P1;durP2;ratioP2;P2;SDS_P1;SDS_P2;PMS_P1;PMS_P2;Temp;Humidity;BMP_temperature;BMP_pressure;BME280_temperature;BME280_humidity;BME280_pressure;Samples;Min_cycle;Max_cycle;Signal;HPM_P1;HPM_P2
2022/04/14 00:01:13;;;;;;;78.35;25.48;;;;;;;;;;4972297;28;96747;-78
2022/04/14 00:03:40;;;;;;;44.70;23.27;;;;;;;;;;4988240;28;97322;-78
2022/04/14 00:08:52;;;;;;;64.78;25.23;;;;;;;;;;4988000;28;97136;-78
2022/04/14 00:11:19;;;;;;;87.03;27.88;;;;;;;;;;4986003;28;97423;-78
2022/04/14 00:13:45;;;;;;;52.38;27.77;;;;;;;;;;4988111;28;95292;-78
2022/04/14 00:16:11;;;;;;;83.80;28.98;;;;;;;;;;4975746;28;96776;-78
2022/04/14 00:18:55;;;;;;;53.10;28.08;;;;;;;;;;4968112;28;95656;-77
2022/04/14 00:21:22;;;;;;;52.47;28.55;;;;;;;;;;4972423;28;95458;-77
2022/04/14 00:23:48;;;;;;;54.80;30.92;;;;;;;;;;4991384;28;96081;-77
2022/04/14 00:26:15;;;;;;;64.65;31.70;;;;;;;;;;4968023;28;96144;-78
2022/04/14 00:28:41;;;;;;;65.43;32.95;;;;;;;;;;4971779;28;97223;-78
2022/04/14 00:31:08;;;;;;;63.35;32.53;;;;;;;;;;4972136;28;97395;-77
2022/04/14 00:33:34;;;;;;;66.05;34.72;;;;;;;;;;4991390;28;96079;-77
2022/04/14 00:36:00;;;;;;;69.22;32.95;;;;;;;;;;4990633;28;96841;-78
2022/04/14 00:38:27;;;;;;;106.00;34.47;;;;;;;;;;4991434;28;97372;-77
2022/04/14 00:40:55;;;;;;;109.40;35.33;;;;;;;;;;4990777;28;96050;-78
2022/04/14 00:43:31;;;;;;;99.60;34.65;;;;;;;;;;4977922;28;96595;-78
2022/04/14 00:45:59;;;;;;;67.95;31.85;;;;;;;;;;4994307;28;97501;-77
2022/04/14 00:48:26;;;;;;;63.53;33.65;;;;;;;;;;4991062;28;96803;-77
2022/04/14 00:51:11;;;;;;;75.75;35.17;;;;;;;;;;4990802;28;97583;-78
2022/04/14 00:53:39;;;;;;;68.07;33.78;;;;;;;;;;4988897;28;95625;-78
2022/04/14 00:56:06;;;;;;;90.18;31.98;;;;;;;;;;5010817;28;97133;-78
2022/04/14 00:58:35;;;;;;;66.75;34.05;;;;;;;;;;5010621;28;97534;-78
2022/04/14 01:01:02;;;;;;;71.88;34.85;;;;;;;;;;5010650;28;95462;-78
2022/04/14 01:03:29;;;;;;;69.97;34.25;;;;;;;;;;5003498;28;96801;-78
2022/04/14 01:05:55;;;;;;;70.22;34.75;;;;;;;;;;4990302;28;97461;-78
2022/04/14 01:08:22;;;;;;;68.35;34.35;;;;;;;;;;4992729;28;95157;-78
2022/04/14 01:10:48;;;;;;;76.28;35.65;;;;;;;;;;4991077;28;97465;-77
2022/04/14 01:13:15;;;;;;;74.05;35.92;;;;;;;;;;4988367;28;95404;-78
2022/04/14 01:15:42;;;;;;;86.88;38.72;;;;;;;;;;4990775;28;96978;-77
2022/04/14 01:18:09;;;;;;;82.10;38.80;;;;;;;;;;4989990;28;97715;-77
2022/04/14 01:20:35;;;;;;;76.43;38.45;;;;;;;;;;4988967;28;95804;-78
2022/04/14 01:23:03;;;;;;;168.25;39.15;;;;;;;;;;4998271;28;96803;-77
2022/04/14 01:25:47;;;;;;;79.35;37.95;;;;;;;;;;5008619;28;95620;-77
2022/04/14 01:28:13;;;;;;;96.95;39.42;;;;;;;;;;4970304;28;95209;-78
2022/04/14 01:30:40;;;;;;;89.72;40.78;;;;;;;;;;4977345;28;97138;-77
2022/04/14 01:35:51;;;;;;;82.80;39.00;;;;;;;;;;4990205;28;96954;-78
2022/04/14 01:38:18;;;;;;;84.45;36.58;;;;;;;;;;4971213;28;97330;-78
2022/04/14 01:40:44;;;;;;;78.18;37.10;;;;;;;;;;4969856;28;95436;-78
2022/04/14 01:43:11;;;;;;;79.70;38.53;;;;;;;;;;4970573;28;96044;-77
2022/04/14 01:45:37;;;;;;;81.68;40.88;;;;;;;;;;4981201;28;97335;-78
2022/04/14 01:48:04;;;;;;;89.65;42.33;;;;;;;;;;4989868;28;95448;-78
2022/04/14 01:50:30;;;;;;;86.80;42.38;;;;;;;;;;4990467;28;96636;-78
2022/04/14 01:52:57;;;;;;;83.75;41.45;;;;;;;;;;4997475;28;97284;-78
2022/04/14 01:55:24;;;;;;;83.20;40.58;;;;;;;;;;4999136;28;97077;-77
2022/04/14 01:57:50;;;;;;;93.25;43.15;;;;;;;;;;4988456;28;97726;-77
2022/04/14 02:00:16;;;;;;;165.07;42.40;;;;;;;;;;4989999;28;95395;-78
2022/04/14 02:02:43;;;;;;;97.30;39.75;;;;;;;;;;4987829;28;98525;-78
2022/04/14 02:05:09;;;;;;;92.40;38.42;;;;;;;;;;4989649;28;97276;-78
2022/04/14 02:07:36;;;;;;;80.75;37.45;;;;;;;;;;4989845;28;95155;-78
2022/04/14 02:10:03;;;;;;;93.45;38.13;;;;;;;;;;4989621;28;96560;-77
2022/04/14 02:12:29;;;;;;;90.22;36.78;;;;;;;;;;4977566;28;97774;-77
2022/04/14 02:14:55;;;;;;;67.72;33.88;;;;;;;;;;4970477;28;95786;-77
2022/04/14 02:17:22;;;;;;;76.47;34.78;;;;;;;;;;4969673;28;97241;-78
2022/04/14 02:19:48;;;;;;;83.15;37.95;;;;;;;;;;4970427;28;96474;-77
2022/04/14 02:22:39;;;;;;;73.43;35.03;;;;;;;;;;4984306;28;95324;-79
2022/04/14 02:25:06;;;;;;;62.22;32.47;;;;;;;;;;4989592;28;97562;-78
2022/04/14 02:27:32;;;;;;;63.75;31.15;;;;;;;;;;4989996;28;95799;-79
2022/04/14 02:29:58;;;;;;;86.35;30.08;;;;;;;;;;4987881;28;96693;-77
2022/04/14 02:32:25;;;;;;;63.03;30.67;;;;;;;;;;4989496;28;97331;-79
2022/04/14 02:35:09;;;;;;;60.38;31.70;;;;;;;;;;4985463;28;95254;-79
2022/04/14 02:37:35;;;;;;;98.95;30.45;;;;;;;;;;4968811;28;97638;-77
2022/04/14 02:40:02;;;;;;;53.30;26.67;;;;;;;;;;4968955;28;95800;-76
2022/04/14 02:42:28;;;;;;;47.70;24.35;;;;;;;;;;4970054;28;96805;-77
2022/04/14 02:44:55;;;;;;;102.20;24.95;;;;;;;;;;4982370;28;97128;-77
2022/04/14 02:47:21;;;;;;;57.20;21.38;;;;;;;;;;4989516;28;95744;-77
2022/04/14 02:49:47;;;;;;;50.67;20.52;;;;;;;;;;4988328;28;97244;-78
2022/04/14 02:52:14;;;;;;;39.00;17.48;;;;;;;;;;4988784;28;97622;-77
2022/04/14 02:54:40;;;;;;;32.85;17.20;;;;;;;;;;4992302;28;96069;-77
2022/04/14 02:57:07;;;;;;;43.72;17.48;;;;;;;;;;4991656;28;96856;-77
2022/04/14 02:59:34;;;;;;;41.72;16.42;;;;;;;;;;4989353;28;95378;-77
2022/04/14 03:02:00;;;;;;;30.20;13.27;;;;;;;;;;4989208;28;97073;-77
2022/04/14 03:04:29;;;;;;;38.45;15.85;;;;;;;;;;4987806;28;97631;-77
2022/04/14 03:06:55;;;;;;;39.65;19.08;;;;;;;;;;4989158;28;95418;-76
2022/04/14 03:09:22;;;;;;;47.50;18.27;;;;;;;;;;4992373;28;96590;-78
2022/04/14 03:11:48;;;;;;;41.13;21.33;;;;;;;;;;5006481;28;97455;-77
2022/04/14 03:14:15;;;;;;;42.20;20.95;;;;;;;;;;4994008;28;95396;-77
2022/04/14 03:16:41;;;;;;;52.38;24.20;;;;;;;;;;4969536;28;97125;-78
2022/04/14 03:19:08;;;;;;;54.92;24.17;;;;;;;;;;4972343;28;97316;-78
2022/04/14 03:21:34;;;;;;;73.60;23.50;;;;;;;;;;4969740;28;96849;-78
2022/04/14 03:24:00;;;;;;;55.13;24.50;;;;;;;;;;4974904;28;97434;-79
2022/04/14 03:26:27;;;;;;;58.00;25.25;;;;;;;;;;5009167;28;96117;-78
2022/04/14 03:28:53;;;;;;;60.33;26.77;;;;;;;;;;5009392;28;97158;-77
2022/04/14 03:31:19;;;;;;;63.40;29.08;;;;;;;;;;5008797;28;97567;-77
2022/04/14 03:33:46;;;;;;;50.58;26.27;;;;;;;;;;5004614;28;95278;-77
2022/04/14 03:36:12;;;;;;;57.67;26.98;;;;;;;;;;4988455;28;96724;-77
2022/04/14 03:38:38;;;;;;;57.63;27.88;;;;;;;;;;4988301;28;98213;-77
2022/04/14 03:41:06;;;;;;;56.50;25.52;;;;;;;;;;4989650;28;95399;-77
2022/04/14 03:43:32;;;;;;;56.53;25.77;;;;;;;;;;4988664;28;96773;-77
2022/04/14 03:46:00;;;;;;;64.90;26.67;;;;;;;;;;4975457;28;95940;-77
2022/04/14 03:48:26;;;;;;;55.25;26.90;;;;;;;;;;4968667;28;97404;-78
2022/04/14 03:50:56;;;;;;;51.28;25.73;;;;;;;;;;4971025;28;97278;-77
2022/04/14 03:53:22;;;;;;;52.80;26.73;;;;;;;;;;4987835;28;95550;-77
2022/04/14 03:55:49;;;;;;;51.17;26.42;;;;;;;;;;4989490;28;96823;-77
2022/04/14 03:58:15;;;;;;;61.80;25.17;;;;;;;;;;4988271;28;96685;-77
2022/04/14 04:00:42;;;;;;;50.33;26.23;;;;;;;;;;4987417;28;95896;-77
2022/04/14 04:03:11;;;;;;;53.88;26.52;;;;;;;;;;4974324;28;96932;-77
2022/04/14 04:05:38;;;;;;;54.92;27.13;;;;;;;;;;4979773;28;95766;-78
2022/04/14 04:08:05;;;;;;;57.08;29.70;;;;;;;;;;4991773;28;96753;-78
2022/04/14 04:10:31;;;;;;;62.22;29.30;;;;;;;;;;4991563;28;97804;-78
2022/04/14 19:02:48;;;;;;;9.40;2.60;;;;;;;;;;5080958;27;95838;-80
2022/04/14 19:05:16;;;;;;;9.15;3.03;;;;;;;;;;5065268;27;98182;-80
2022/04/14 19:07:43;;;;;;;6.32;2.53;;;;;;;;;;5064596;27;95501;-79
2022/04/14 19:10:13;;;;;;;10.45;3.40;;;;;;;;;;5066071;27;96719;-80
2022/04/14 19:12:40;;;;;;;6.20;2.67;;;;;;;;;;5065298;27;96311;-79
2022/04/14 19:15:06;;;;;;;10.95;3.05;;;;;;;;;;5064548;27;96126;-77
2022/04/14 19:17:33;;;;;;;7.03;2.78;;;;;;;;;;5066087;27;96009;-76
2022/04/14 19:20:00;;;;;;;7.82;3.03;;;;;;;;;;5057394;27;98026;-80
2022/04/14 19:22:27;;;;;;;8.10;3.08;;;;;;;;;;5068865;27;95771;-79
2022/04/14 19:24:53;;;;;;;8.27;3.60;;;;;;;;;;5064379;27;97735;-81
2022/04/14 19:27:20;;;;;;;9.23;3.63;;;;;;;;;;5052857;27;96191;-80
2022/04/14 19:29:46;;;;;;;11.10;3.67;;;;;;;;;;5064085;27;97038;-79
2022/04/14 19:32:12;;;;;;;8.65;3.95;;;;;;;;;;5065906;27;99845;-79
2022/04/14 19:34:39;;;;;;;11.68;4.05;;;;;;;;;;5065684;27;95697;-80
2022/04/14 19:37:06;;;;;;;11.43;4.68;;;;;;;;;;5065429;27;96722;-79
2022/04/14 19:39:34;;;;;;;10.80;4.80;;;;;;;;;;5064454;27;97384;-79
2022/04/14 19:42:03;;;;;;;11.15;4.47;;;;;;;;;;5066054;27;95304;-78
2022/04/14 19:44:30;;;;;;;11.85;5.70;;;;;;;;;;5063692;27;96718;-78
2022/04/14 19:46:57;;;;;;;11.38;4.45;;;;;;;;;;5060068;27;95849;-79
2022/04/14 19:49:23;;;;;;;15.13;5.22;;;;;;;;;;5056664;27;95605;-79
2022/04/14 19:51:51;;;;;;;19.98;5.40;;;;;;;;;;5062148;27;98087;-80
2022/04/14 19:54:17;;;;;;;14.27;5.25;;;;;;;;;;5060269;27;95868;-79
2022/04/14 19:56:43;;;;;;;15.38;6.03;;;;;;;;;;5058897;27;96891;-80
2022/04/14 19:59:10;;;;;;;13.40;6.28;;;;;;;;;;5063931;27;97207;-80
2022/04/14 20:01:37;;;;;;;13.93;6.00;;;;;;;;;;5075805;27;95440;-80
2022/04/14 20:04:03;;;;;;;13.02;6.93;;;;;;;;;;5084967;27;97454;-80
2022/04/14 20:06:29;;;;;;;16.42;7.38;;;;;;;;;;5078475;27;97604;-79
2022/04/14 20:08:56;;;;;;;16.70;8.63;;;;;;;;;;5085774;27;96692;-79
2022/04/14 20:11:22;;;;;;;21.42;9.18;;;;;;;;;;5085071;27;97624;-78
2022/04/14 20:13:50;;;;;;;26.10;9.75;;;;;;;;;;5074091;27;95409;-79
2022/04/14 20:16:16;;;;;;;20.70;10.27;;;;;;;;;;5044193;27;96650;-78
2022/04/14 20:18:43;;;;;;;18.70;10.30;;;;;;;;;;5051416;27;97481;-78
2022/04/14 20:21:09;;;;;;;21.83;11.48;;;;;;;;;;5062007;27;95660;-77
2022/04/14 20:23:36;;;;;;;21.92;11.00;;;;;;;;;;5048681;27;96689;-77
2022/04/14 20:26:02;;;;;;;18.15;10.93;;;;;;;;;;5070814;27;97362;-80
2022/04/14 20:28:28;;;;;;;22.67;11.43;;;;;;;;;;5072683;27;95299;-79
2022/04/14 20:30:56;;;;;;;19.50;11.50;;;;;;;;;;5070900;27;97277;-79
2022/04/14 20:33:22;;;;;;;22.30;11.68;;;;;;;;;;5068245;27;95810;-78
2022/04/14 20:35:49;;;;;;;68.65;14.93;;;;;;;;;;5057776;27;96773;-78
2022/04/14 20:38:15;;;;;;;25.38;11.85;;;;;;;;;;5066532;27;97334;-78
2022/04/14 20:40:42;;;;;;;24.70;11.30;;;;;;;;;;5070020;27;95280;-78
2022/04/14 20:43:08;;;;;;;22.45;11.48;;;;;;;;;;5070836;27;96763;-78
2022/04/14 20:45:35;;;;;;;20.65;11.25;;;;;;;;;;5069682;27;97096;-78
2022/04/14 20:48:01;;;;;;;21.13;11.93;;;;;;;;;;5058436;27;96530;-79
2022/04/14 20:50:27;;;;;;;36.00;11.88;;;;;;;;;;5064269;27;96871;-79
2022/04/14 20:52:54;;;;;;;26.00;11.38;;;;;;;;;;5070015;27;95702;-80
2022/04/14 20:55:20;;;;;;;31.77;12.57;;;;;;;;;;5064656;27;96890;-79
2022/04/14 20:57:47;;;;;;;125.15;17.00;;;;;;;;;;5070046;27;97152;-80
2022/04/14 21:00:14;;;;;;;26.98;12.32;;;;;;;;;;5051991;27;96230;-79
2022/04/14 21:02:43;;;;;;;41.42;13.15;;;;;;;;;;5067387;27;97105;-79
2022/04/14 21:05:27;;;;;;;28.02;12.30;;;;;;;;;;5077253;27;95960;-78
2022/04/14 21:07:53;;;;;;;32.17;13.60;;;;;;;;;;5069474;27;95895;-77
2022/04/14 21:10:20;;;;;;;60.90;14.43;;;;;;;;;;5070208;27;97474;-79
2022/04/14 21:12:46;;;;;;;30.30;12.27;;;;;;;;;;5072524;27;95373;-79
2022/04/14 21:15:12;;;;;;;24.75;12.15;;;;;;;;;;5069214;27;96900;-78
2022/04/14 21:17:39;;;;;;;27.63;13.32;;;;;;;;;;5069628;27;97323;-79
2022/04/14 21:20:06;;;;;;;26.25;12.77;;;;;;;;;;5070061;27;95458;-80
2022/04/14 21:22:33;;;;;;;20.83;11.30;;;;;;;;;;5067538;27;96768;-78
2022/04/14 21:24:59;;;;;;;20.58;11.77;;;;;;;;;;5067682;27;100005;-78
2022/04/14 21:27:26;;;;;;;35.22;11.35;;;;;;;;;;5068374;27;95677;-79
2022/04/14 21:29:52;;;;;;;88.32;14.80;;;;;;;;;;5070255;27;97255;-80
2022/04/14 21:32:18;;;;;;;21.45;11.43;;;;;;;;;;5073186;27;97352;-78
2022/04/14 21:34:45;;;;;;;44.75;12.50;;;;;;;;;;5068726;27;96448;-78
2022/04/14 21:37:11;;;;;;;37.17;12.93;;;;;;;;;;5067893;27;97396;-78
2022/04/14 21:39:37;;;;;;;27.25;12.07;;;;;;;;;;5068707;27;95472;-79
2022/04/14 21:42:04;;;;;;;23.15;10.90;;;;;;;;;;5068364;27;96761;-78
2022/04/14 21:44:34;;;;;;;25.58;12.57;;;;;;;;;;5051039;27;97414;-78
2022/04/14 21:47:00;;;;;;;20.48;11.52;;;;;;;;;;5070533;27;95655;-78
2022/04/14 21:49:27;;;;;;;26.15;11.38;;;;;;;;;;5069152;27;96761;-79
2022/04/14 21:51:53;;;;;;;23.05;11.63;;;;;;;;;;5070287;27;97404;-77
2022/04/14 21:54:37;;;;;;;38.25;12.43;;;;;;;;;;5072817;27;95800;-78
2022/04/14 21:57:04;;;;;;;37.17;12.88;;;;;;;;;;5069517;27;97417;-77
2022/04/14 21:59:30;;;;;;;24.50;13.02;;;;;;;;;;5070205;27;96569;-77
2022/04/14 22:01:58;;;;;;;19.95;11.65;;;;;;;;;;5069708;27;96960;-77
2022/04/14 22:04:25;;;;;;;43.03;14.02;;;;;;;;;;5069239;27;97373;-77
2022/04/14 22:06:51;;;;;;;50.53;13.98;;;;;;;;;;5069771;27;95873;-78
2022/04/14 22:09:18;;;;;;;40.15;13.20;;;;;;;;;;5069622;27;97105;-77
2022/04/14 22:11:44;;;;;;;31.67;12.23;;;;;;;;;;5069484;27;97371;-79
2022/04/14 22:14:10;;;;;;;40.75;13.80;;;;;;;;;;5069440;27;95465;-77
2022/04/14 22:16:37;;;;;;;64.18;15.32;;;;;;;;;;5072772;27;96991;-78
2022/04/14 22:19:03;;;;;;;23.23;12.90;;;;;;;;;;5069771;27;95517;-78
2022/04/14 22:21:30;;;;;;;80.55;14.82;;;;;;;;;;5069753;27;96749;-78
2022/04/14 22:23:56;;;;;;;96.75;15.98;;;;;;;;;;5069659;27;97379;-78
2022/04/14 22:26:23;;;;;;;41.83;14.02;;;;;;;;;;5068824;27;95575;-78
2022/04/14 22:28:49;;;;;;;83.05;15.88;;;;;;;;;;5051370;27;97079;-77
2022/04/14 22:31:33;;;;;;;72.40;13.80;;;;;;;;;;5067924;27;95602;-78
2022/04/14 22:33:59;;;;;;;68.53;12.60;;;;;;;;;;5069503;27;95470;-77
2022/04/14 22:36:26;;;;;;;41.20;10.68;;;;;;;;;;5068676;27;96843;-79
2022/04/14 22:38:52;;;;;;;62.08;10.60;;;;;;;;;;5054212;27;97309;-78
2022/04/14 22:41:18;;;;;;;49.40;11.48;;;;;;;;;;5069507;27;97125;-79
2022/04/14 22:43:45;;;;;;;71.22;13.13;;;;;;;;;;5069035;27;97435;-80
2022/04/14 22:46:12;;;;;;;54.35;12.43;;;;;;;;;;5069000;27;95767;-79
2022/04/14 22:48:39;;;;;;;29.27;12.13;;;;;;;;;;5069499;27;96964;-79
2022/04/14 22:51:05;;;;;;;21.38;11.90;;;;;;;;;;5069333;27;97289;-79
2022/04/14 22:53:31;;;;;;;34.22;13.68;;;;;;;;;;5068031;27;96316;-79
2022/04/14 22:55:58;;;;;;;34.17;15.20;;;;;;;;;;5069371;27;96766;-79
2022/04/14 22:58:24;;;;;;;38.03;17.08;;;;;;;;;;5069004;27;100148;-78
2022/04/14 23:00:51;;;;;;;72.80;16.63;;;;;;;;;;5072240;27;95628;-79
2022/04/14 23:03:36;;;;;;;32.80;14.90;;;;;;;;;;5069151;27;98068;-79
2022/04/14 23:06:02;;;;;;;33.58;16.90;;;;;;;;;;5050753;27;95851;-78
2022/04/14 23:11:14;;;;;;;36.08;20.13;;;;;;;;;;5069221;27;97323;-79
2022/04/14 23:13:41;;;;;;;38.28;19.88;;;;;;;;;;5068800;27;95358;-78
2022/04/14 23:16:07;;;;;;;39.10;21.17;;;;;;;;;;5069037;27;96766;-79
2022/04/14 23:18:34;;;;;;;38.92;21.05;;;;;;;;;;5050316;27;96389;-79
2022/04/14 23:21:00;;;;;;;40.42;21.08;;;;;;;;;;5072002;27;95866;-77
2022/04/14 23:23:27;;;;;;;36.47;20.77;;;;;;;;;;5063525;27;97432;-79
2022/04/14 23:25:53;;;;;;;40.45;20.63;;;;;;;;;;5068505;27;95667;-80
2022/04/14 23:28:20;;;;;;;38.80;20.30;;;;;;;;;;5068456;27;97541;-78
2022/04/14 23:30:46;;;;;;;43.00;20.75;;;;;;;;;;5068967;27;97351;-78
2022/04/14 23:33:13;;;;;;;38.53;20.88;;;;;;;;;;5068814;27;95456;-78
2022/04/14 23:35:39;;;;;;;36.50;20.95;;;;;;;;;;5068082;27;95853;-77
2022/04/14 23:38:07;;;;;;;36.85;19.92;;;;;;;;;;5068460;27;96087;-79
2022/04/14 23:40:43;;;;;;;37.30;20.00;;;;;;;;;;5068831;27;95647;-77
2022/04/14 23:43:09;;;;;;;33.75;18.42;;;;;;;;;;5071379;27;97346;-78
2022/04/14 23:45:36;;;;;;;32.58;18.45;;;;;;;;;;5068216;27;95439;-78
2022/04/14 23:48:02;;;;;;;38.83;19.40;;;;;;;;;;5070020;27;96781;-78
2022/04/14 23:50:29;;;;;;;35.83;19.65;;;;;;;;;;5071284;27;97559;-78
2022/04/14 23:52:55;;;;;;;33.20;19.10;;;;;;;;;;5071851;27;95836;-77
2022/04/14 23:55:21;;;;;;;32.22;18.58;;;;;;;;;;5071914;27;95516;-78
2022/04/14 23:57:48;;;;;;;37.28;18.45;;;;;;;;;;5071647;27;97311;-77
